sensor_id;sensor_type;location;lat;lon;timestamp;pressure;altitude;pressure_sealevel;temperature;humidity
42169;BME280;27838;43.858;25.974;2024-02-04T00:00:43;101349.94;;;10.04;54.01
42169;BME280;27838;43.858;25.974;2024-02-04T00:03:10;101346.41;;;9.98;54.18
42169;BME280;27838;43.858;25.974;2024-02-04T00:05:36;101345.56;;;9.99;54.29
42169;BME280;27838;43.858;25.974;2024-02-04T00:08:03;101341.13;;;9.94;54.53
42169;BME280;27838;43.858;25.974;2024-02-04T00:10:30;101337.72;;;9.96;54.51
42169;BME280;27838;43.858;25.974;2024-02-04T00:12:56;101338.59;;;9.98;54.60
42169;BME280;27838;43.858;25.974;2024-02-04T00:15:23;101335.97;;;9.97;54.72
42169;BME280;27838;43.858;25.974;2024-02-04T00:17:49;101336.06;;;10.05;54.70
42169;BME280;27838;43.858;25.974;2024-02-04T00:20:16;101339.59;;;10.10;54.63
42169;BME280;27838;43.858;25.974;2024-02-04T00:22:42;101338.78;;;10.14;54.45
42169;BME280;27838;43.858;25.974;2024-02-04T00:25:09;101343.13;;;10.12;54.66
42169;BME280;27838;43.858;25.974;2024-02-04T00:27:37;101339.63;;;10.11;54.80
42169;BME280;27838;43.858;25.974;2024-02-04T00:30:04;101330.19;;;10.21;54.46
42169;BME280;27838;43.858;25.974;2024-02-04T00:32:31;101325.81;;;10.20;54.58
42169;BME280;27838;43.858;25.974;2024-02-04T00:34:57;101327.53;;;10.18;54.85
42169;BME280;27838;43.858;25.974;2024-02-04T00:37:24;101318.81;;;10.14;55.13
42169;BME280;27838;43.858;25.974;2024-02-04T00:39:50;101315.31;;;10.12;55.12
42169;BME280;27838;43.858;25.974;2024-02-04T00:42:17;101319.69;;;10.16;55.42
42169;BME280;27838;43.858;25.974;2024-02-04T00:44:44;101312.78;;;10.20;55.15
42169;BME280;27838;43.858;25.974;2024-02-04T00:47:10;101304.97;;;10.17;55.24
42169;BME280;27838;43.858;25.974;2024-02-04T00:49:38;101303.25;;;10.22;55.33
42169;BME280;27838;43.858;25.974;2024-02-04T00:52:05;101301.59;;;10.29;55.13
42169;BME280;27838;43.858;25.974;2024-02-04T00:54:32;101296.53;;;10.38;54.97
42169;BME280;27838;43.858;25.974;2024-02-04T00:56:58;101288.72;;;10.41;54.68
42169;BME280;27838;43.858;25.974;2024-02-04T00:59:25;101285.28;;;10.44;54.91
42169;BME280;27838;43.858;25.974;2024-02-04T01:01:51;101276.59;;;10.42;55.08
42169;BME280;27838;43.858;25.974;2024-02-04T01:04:17;101272.22;;;10.41;55.26
42169;BME280;27838;43.858;25.974;2024-02-04T01:06:44;101278.28;;;10.39;55.15
42169;BME280;27838;43.858;25.974;2024-02-04T01:09:10;101277.44;;;10.41;55.21
42169;BME280;27838;43.858;25.974;2024-02-04T01:11:37;101287.94;;;10.47;55.11
42169;BME280;27838;43.858;25.974;2024-02-04T01:14:03;101280.91;;;10.43;55.21
42169;BME280;27838;43.858;25.974;2024-02-04T01:16:30;101273.13;;;10.44;55.19
42169;BME280;27838;43.858;25.974;2024-02-04T01:18:56;101265.25;;;10.36;55.24
42169;BME280;27838;43.858;25.974;2024-02-04T01:21:23;101275.69;;;10.41;55.13
42169;BME280;27838;43.858;25.974;2024-02-04T01:23:50;101270.56;;;10.49;54.81
42169;BME280;27838;43.858;25.974;2024-02-04T01:26:17;101259.25;;;10.47;55.13
42169;BME280;27838;43.858;25.974;2024-02-04T01:28:43;101253.94;;;10.34;55.28
42169;BME280;27838;43.858;25.974;2024-02-04T01:31:10;101243.53;;;10.37;55.07
42169;BME280;27838;43.858;25.974;2024-02-04T01:33:37;101241.81;;;10.38;55.09
42169;BME280;27838;43.858;25.974;2024-02-04T01:36:03;101246.19;;;10.44;54.91
42169;BME280;27838;43.858;25.974;2024-02-04T01:38:30;101240.16;;;10.49;54.68
42169;BME280;27838;43.858;25.974;2024-02-04T01:40:57;101231.44;;;10.44;54.43
42169;BME280;27838;43.858;25.974;2024-02-04T01:43:23;101238.41;;;10.50;54.58
42169;BME280;27838;43.858;25.974;2024-02-04T01:45:50;101231.53;;;10.58;54.29
42169;BME280;27838;43.858;25.974;2024-02-04T01:48:19;101237.69;;;10.66;54.02
42169;BME280;27838;43.858;25.974;2024-02-04T01:50:47;101221.22;;;10.70;53.93
42169;BME280;27838;43.858;25.974;2024-02-04T01:53:15;101227.31;;;10.72;53.57
42169;BME280;27838;43.858;25.974;2024-02-04T01:55:41;101227.38;;;10.79;53.76
42169;BME280;27838;43.858;25.974;2024-02-04T01:58:08;101226.47;;;10.76;53.85
42169;BME280;27838;43.858;25.974;2024-02-04T02:00:35;101229.91;;;10.71;54.12
42169;BME280;27838;43.858;25.974;2024-02-04T02:03:06;101229.91;;;10.72;54.04
42169;BME280;27838;43.858;25.974;2024-02-04T02:05:32;101220.34;;;10.74;54.09
42169;BME280;27838;43.858;25.974;2024-02-04T02:07:59;101227.38;;;10.79;53.85
42169;BME280;27838;43.858;25.974;2024-02-04T02:10:25;101230.84;;;10.81;53.89
42169;BME280;27838;43.858;25.974;2024-02-04T02:15:32;101218.72;;;10.86;53.58
42169;BME280;27838;43.858;25.974;2024-02-04T02:18:11;101214.34;;;10.83;53.87
42169;BME280;27838;43.858;25.974;2024-02-04T02:26:31;101218.66;;;10.80;54.08
42169;BME280;27838;43.858;25.974;2024-02-04T02:28:58;101221.31;;;10.84;53.95
42169;BME280;27838;43.858;25.974;2024-02-04T02:31:24;101206.53;;;10.82;53.88
42169;BME280;27838;43.858;25.974;2024-02-04T02:33:51;101221.34;;;10.93;53.74
42169;BME280;27838;43.858;25.974;2024-02-04T02:36:21;101228.31;;;10.93;53.87
42169;BME280;27838;43.858;25.974;2024-02-04T02:39:13;101217.84;;;10.90;53.97
42169;BME280;27838;43.858;25.974;2024-02-04T02:41:42;101216.03;;;10.75;54.38
42169;BME280;27838;43.858;25.974;2024-02-04T02:44:11;101206.50;;;10.79;54.33
42169;BME280;27838;43.858;25.974;2024-02-04T02:46:39;101210.88;;;10.84;54.20
42169;BME280;27838;43.858;25.974;2024-02-04T02:49:06;101207.44;;;10.90;54.12
42169;BME280;27838;43.858;25.974;2024-02-04T02:51:33;101212.66;;;10.91;54.20
42169;BME280;27838;43.858;25.974;2024-02-04T02:53:59;101203.09;;;10.92;54.18
42169;BME280;27838;43.858;25.974;2024-02-04T02:56:26;101193.50;;;10.88;54.21
42169;BME280;27838;43.858;25.974;2024-02-04T02:58:53;101208.31;;;10.89;54.23
42169;BME280;27838;43.858;25.974;2024-02-04T03:01:19;101216.16;;;10.93;54.19
42169;BME280;27838;43.858;25.974;2024-02-04T03:03:46;101200.50;;;10.93;54.20
42169;BME280;27838;43.858;25.974;2024-02-04T03:06:12;101192.75;;;11.01;53.97
42169;BME280;27838;43.858;25.974;2024-02-04T03:08:39;101196.19;;;11.00;54.11
42169;BME280;27838;43.858;25.974;2024-02-04T03:11:05;101208.38;;;11.04;54.01
42169;BME280;27838;43.858;25.974;2024-02-04T03:13:32;101203.19;;;11.09;53.79
42169;BME280;27838;43.858;25.974;2024-02-04T03:15:59;101194.47;;;11.02;53.92
42169;BME280;27838;43.858;25.974;2024-02-04T03:18:25;101204.91;;;11.02;53.99
42169;BME280;27838;43.858;25.974;2024-02-04T03:20:51;101206.63;;;11.00;53.91
42169;BME280;27838;43.858;25.974;2024-02-04T03:23:17;101225.75;;;10.96;54.14
42169;BME280;27838;43.858;25.974;2024-02-04T03:25:44;101198.75;;;10.91;54.25
42169;BME280;27838;43.858;25.974;2024-02-04T03:28:11;101201.31;;;10.86;54.37
42169;BME280;27838;43.858;25.974;2024-02-04T03:30:37;101213.44;;;10.76;54.52
42169;BME280;27838;43.858;25.974;2024-02-04T03:33:04;101204.72;;;10.71;54.83
42169;BME280;27838;43.858;25.974;2024-02-04T03:35:30;101203.00;;;10.73;54.74
42169;BME280;27838;43.858;25.974;2024-02-04T03:38:01;101186.41;;;10.65;54.90
42169;BME280;27838;43.858;25.974;2024-02-04T03:40:27;101188.19;;;10.72;54.84
42169;BME280;27838;43.858;25.974;2024-02-04T03:42:54;101193.44;;;10.77;54.75
42169;BME280;27838;43.858;25.974;2024-02-04T03:45:20;101186.50;;;10.81;54.55
42169;BME280;27838;43.858;25.974;2024-02-04T03:47:47;101187.38;;;10.80;54.73
42169;BME280;27838;43.858;25.974;2024-02-04T03:50:14;101190.88;;;10.82;54.70
42169;BME280;27838;43.858;25.974;2024-02-04T03:52:40;101183.03;;;10.83;54.64
42169;BME280;27838;43.858;25.974;2024-02-04T03:55:08;101178.69;;;10.81;54.51
42169;BME280;27838;43.858;25.974;2024-02-04T03:57:35;101166.47;;;10.70;54.69
42169;BME280;27838;43.858;25.974;2024-02-04T04:00:01;101167.31;;;10.71;54.64
42169;BME280;27838;43.858;25.974;2024-02-04T04:02:28;101168.13;;;10.59;54.97
42169;BME280;27838;43.858;25.974;2024-02-04T04:04:54;101165.53;;;10.59;55.14
42169;BME280;27838;43.858;25.974;2024-02-04T04:07:21;101178.53;;;10.56;55.23
42169;BME280;27838;43.858;25.974;2024-02-04T04:09:47;101174.16;;;10.53;55.24
42169;BME280;27838;43.858;25.974;2024-02-04T04:12:14;101186.38;;;10.57;55.33
42169;BME280;27838;43.858;25.974;2024-02-04T04:14:41;101173.31;;;10.56;55.32
42169;BME280;27838;43.858;25.974;2024-02-04T04:17:07;101176.78;;;10.52;55.64
42169;BME280;27838;43.858;25.974;2024-02-04T04:19:34;101163.69;;;10.46;55.93
42169;BME280;27838;43.858;25.974;2024-02-04T04:22:01;101153.25;;;10.46;55.61
42169;BME280;27838;43.858;25.974;2024-02-04T04:24:28;101164.53;;;10.45;55.59
42169;BME280;27838;43.858;25.974;2024-02-04T04:26:55;101174.97;;;10.48;55.62
42169;BME280;27838;43.858;25.974;2024-02-04T04:29:22;101177.63;;;10.52;55.64
42169;BME280;27838;43.858;25.974;2024-02-04T04:31:48;101175.88;;;10.50;55.57
42169;BME280;27838;43.858;25.974;2024-02-04T04:34:15;101179.34;;;10.47;55.81
42169;BME280;27838;43.858;25.974;2024-02-04T04:36:43;101192.34;;;10.46;55.94
42169;BME280;27838;43.858;25.974;2024-02-04T04:39:10;101201.88;;;10.42;55.83
42169;BME280;27838;43.858;25.974;2024-02-04T04:41:36;101227.16;;;10.51;55.48
42169;BME280;27838;43.858;25.974;2024-02-04T04:44:03;101232.31;;;10.48;55.51
42169;BME280;27838;43.858;25.974;2024-02-04T04:46:29;101226.22;;;10.44;55.87
42169;BME280;27838;43.858;25.974;2024-02-04T04:48:56;101228.84;;;10.46;55.63
42169;BME280;27838;43.858;25.974;2024-02-04T04:51:24;101232.19;;;10.34;55.99
42169;BME280;27838;43.858;25.974;2024-02-04T04:53:50;101225.13;;;10.25;56.16
42169;BME280;27838;43.858;25.974;2024-02-04T04:56:17;101223.41;;;10.24;56.10
42169;BME280;27838;43.858;25.974;2024-02-04T04:58:43;101228.63;;;10.27;56.04
42169;BME280;27838;43.858;25.974;2024-02-04T05:01:10;101221.72;;;10.29;55.78
42169;BME280;27838;43.858;25.974;2024-02-04T05:03:36;101220.84;;;10.30;55.93
42169;BME280;27838;43.858;25.974;2024-02-04T05:06:03;101216.50;;;10.31;55.91
42169;BME280;27838;43.858;25.974;2024-02-04T05:08:30;101227.88;;;10.36;55.86
42169;BME280;27838;43.858;25.974;2024-02-04T05:10:56;101225.25;;;10.31;56.04
42169;BME280;27838;43.858;25.974;2024-02-04T05:13:23;101235.63;;;10.30;55.75
42169;BME280;27838;43.858;25.974;2024-02-04T05:15:49;101232.03;;;10.20;56.49
42169;BME280;27838;43.858;25.974;2024-02-04T05:18:16;101232.00;;;10.14;56.64
42169;BME280;27838;43.858;25.974;2024-02-04T05:20:42;101246.72;;;10.13;56.46
42169;BME280;27838;43.858;25.974;2024-02-04T05:23:09;101245.94;;;10.19;56.48
42169;BME280;27838;43.858;25.974;2024-02-04T05:25:35;101252.88;;;10.20;56.62
42169;BME280;27838;43.858;25.974;2024-02-04T05:28:02;101244.19;;;10.18;56.61
42169;BME280;27838;43.858;25.974;2024-02-04T05:30:29;101258.09;;;10.20;56.82
42169;BME280;27838;43.858;25.974;2024-02-04T05:32:55;101247.66;;;10.20;56.62
42169;BME280;27838;43.858;25.974;2024-02-04T05:35:22;101252.06;;;10.23;56.82
42169;BME280;27838;43.858;25.974;2024-02-04T05:37:48;101251.16;;;10.19;56.55
42169;BME280;27838;43.858;25.974;2024-02-04T05:40:15;101256.34;;;10.17;56.76
42169;BME280;27838;43.858;25.974;2024-02-04T05:42:43;101257.97;;;10.09;56.86
42169;BME280;27838;43.858;25.974;2024-02-04T05:45:10;101262.34;;;10.13;57.05
42169;BME280;27838;43.858;25.974;2024-02-04T05:47:37;101252.88;;;10.17;57.05
42169;BME280;27838;43.858;25.974;2024-02-04T05:50:04;101252.78;;;10.11;57.04
42169;BME280;27838;43.858;25.974;2024-02-04T05:52:31;101252.75;;;10.08;57.00
42169;BME280;27838;43.858;25.974;2024-02-04T05:54:57;101246.69;;;10.07;57.22
42169;BME280;27838;43.858;25.974;2024-02-04T05:57:24;101254.47;;;10.06;57.33
42169;BME280;27838;43.858;25.974;2024-02-04T05:59:50;101238.72;;;9.93;57.70
42169;BME280;27838;43.858;25.974;2024-02-04T06:02:18;101249.22;;;9.99;57.56
42169;BME280;27838;43.858;25.974;2024-02-04T06:04:44;101247.47;;;10.00;57.24
42169;BME280;27838;43.858;25.974;2024-02-04T06:07:13;101249.22;;;10.02;57.27
42169;BME280;27838;43.858;25.974;2024-02-04T06:09:40;101248.38;;;10.04;57.37
42169;BME280;27838;43.858;25.974;2024-02-04T06:12:06;101237.88;;;9.97;57.52
42169;BME280;27838;43.858;25.974;2024-02-04T06:14:33;101242.22;;;9.95;57.65
42169;BME280;27838;43.858;25.974;2024-02-04T06:17:01;101245.69;;;9.94;57.94
42169;BME280;27838;43.858;25.974;2024-02-04T06:19:28;101249.22;;;9.99;57.40
42169;BME280;27838;43.858;25.974;2024-02-04T06:21:54;101244.81;;;9.95;57.68
42169;BME280;27838;43.858;25.974;2024-02-04T06:24:21;101252.72;;;10.05;57.46
42169;BME280;27838;43.858;25.974;2024-02-04T06:26:47;101255.34;;;10.08;57.46
42169;BME280;27838;43.858;25.974;2024-02-04T06:29:14;101262.31;;;10.07;57.26
42169;BME280;27838;43.858;25.974;2024-02-04T06:31:44;101263.16;;;10.08;57.30
42169;BME280;27838;43.858;25.974;2024-02-04T06:34:11;101263.22;;;10.11;57.28
42169;BME280;27838;43.858;25.974;2024-02-04T06:36:37;101264.97;;;10.12;57.32
42169;BME280;27838;43.858;25.974;2024-02-04T06:39:04;101266.75;;;10.16;56.85
42169;BME280;27838;43.858;25.974;2024-02-04T06:41:33;101268.53;;;10.23;57.00
42169;BME280;27838;43.858;25.974;2024-02-04T06:44:05;101276.41;;;10.26;57.23
42169;BME280;27838;43.858;25.974;2024-02-04T06:46:31;101278.16;;;10.29;56.69
42169;BME280;27838;43.858;25.974;2024-02-04T06:48:58;101281.69;;;10.32;56.77
42169;BME280;27838;43.858;25.974;2024-02-04T06:51:24;101280.88;;;10.35;56.68
42169;BME280;27838;43.858;25.974;2024-02-04T06:53:51;101287.03;;;10.46;56.31
42169;BME280;27838;43.858;25.974;2024-02-04T06:56:18;101294.84;;;10.42;56.27
42169;BME280;27838;43.858;25.974;2024-02-04T06:58:44;101310.56;;;10.51;56.24
42169;BME280;27838;43.858;25.974;2024-02-04T07:01:11;101321.00;;;10.54;56.19
42169;BME280;27838;43.858;25.974;2024-02-04T07:03:38;101313.97;;;10.48;55.90
42169;BME280;27838;43.858;25.974;2024-02-04T07:06:05;101327.81;;;10.41;56.64
42169;BME280;27838;43.858;25.974;2024-02-04T07:08:32;101315.56;;;10.32;56.46
42169;BME280;27838;43.858;25.974;2024-02-04T07:10:58;101319.09;;;10.37;56.41
42169;BME280;27838;43.858;25.974;2024-02-04T07:13:25;101314.88;;;10.49;56.38
42169;BME280;27838;43.858;25.974;2024-02-04T07:15:51;101316.66;;;10.54;56.15
42169;BME280;27838;43.858;25.974;2024-02-04T07:18:19;101319.31;;;10.59;56.44
42169;BME280;27838;43.858;25.974;2024-02-04T07:20:47;101325.41;;;10.60;56.52
42169;BME280;27838;43.858;25.974;2024-02-04T07:23:14;101310.69;;;10.66;56.31
42169;BME280;27838;43.858;25.974;2024-02-04T07:25:40;101302.94;;;10.74;55.70
42169;BME280;27838;43.858;25.974;2024-02-04T07:28:08;101309.94;;;10.80;55.81
42169;BME280;27838;43.858;25.974;2024-02-04T07:30:34;101314.22;;;10.74;55.49
42169;BME280;27838;43.858;25.974;2024-02-04T07:33:01;101310.69;;;10.69;55.58
42169;BME280;27838;43.858;25.974;2024-02-04T07:35:27;101309.00;;;10.71;55.74
42169;BME280;27838;43.858;25.974;2024-02-04T07:37:54;101302.94;;;10.75;55.83
42169;BME280;27838;43.858;25.974;2024-02-04T07:40:20;101301.25;;;10.81;55.72
42169;BME280;27838;43.858;25.974;2024-02-04T07:42:47;101297.81;;;10.86;55.55
42169;BME280;27838;43.858;25.974;2024-02-04T07:45:13;101294.38;;;10.92;55.41
42169;BME280;27838;43.858;25.974;2024-02-04T07:47:41;101292.63;;;10.89;55.48
42169;BME280;27838;43.858;25.974;2024-02-04T07:50:08;101303.91;;;10.84;55.75
42169;BME280;27838;43.858;25.974;2024-02-04T07:52:35;101288.25;;;10.84;56.13
42169;BME280;27838;43.858;25.974;2024-02-04T07:55:02;101288.25;;;10.84;56.52
42169;BME280;27838;43.858;25.974;2024-02-04T07:57:28;101275.13;;;10.76;56.69
42169;BME280;27838;43.858;25.974;2024-02-04T07:59:55;101267.31;;;10.73;57.06
42169;BME280;27838;43.858;25.974;2024-02-04T08:02:21;101259.50;;;10.79;57.12
42169;BME280;27838;43.858;25.974;2024-02-04T08:04:48;101255.16;;;10.80;57.13
42169;BME280;27838;43.858;25.974;2024-02-04T08:07:14;101255.19;;;10.83;57.49
42169;BME280;27838;43.858;25.974;2024-02-04T08:09:42;101256.09;;;10.88;57.46
42169;BME280;27838;43.858;25.974;2024-02-04T08:12:09;101250.03;;;10.92;57.39
42169;BME280;27838;43.858;25.974;2024-02-04T08:14:35;101249.25;;;11.05;57.13
42169;BME280;27838;43.858;25.974;2024-02-04T08:17:02;101248.44;;;11.11;57.20
42169;BME280;27838;43.858;25.974;2024-02-04T08:19:29;101236.25;;;11.13;57.43
42169;BME280;27838;43.858;25.974;2024-02-04T08:21:55;101238.00;;;11.12;57.85
42169;BME280;27838;43.858;25.974;2024-02-04T08:24:22;101249.38;;;11.21;57.57
42169;BME280;27838;43.858;25.974;2024-02-04T08:26:49;101252.84;;;11.21;57.61
42169;BME280;27838;43.858;25.974;2024-02-04T08:29:16;101252.00;;;11.28;57.59
42169;BME280;27838;43.858;25.974;2024-02-04T08:31:42;101256.44;;;11.42;57.18
42169;BME280;27838;43.858;25.974;2024-02-04T08:34:09;101275.66;;;11.56;57.04
42169;BME280;27838;43.858;25.974;2024-02-04T08:36:35;101262.66;;;11.64;56.88
42169;BME280;27838;43.858;25.974;2024-02-04T08:39:02;101271.38;;;11.74;56.71
42169;BME280;27838;43.858;25.974;2024-02-04T08:41:29;101274.84;;;11.77;56.82
42169;BME280;27838;43.858;25.974;2024-02-04T08:43:56;101271.38;;;11.74;57.06
42169;BME280;27838;43.858;25.974;2024-02-04T08:46:22;101281.81;;;11.72;57.21
42169;BME280;27838;43.858;25.974;2024-02-04T08:48:49;101280.91;;;11.67;57.80
42169;BME280;27838;43.858;25.974;2024-02-04T08:51:15;101288.72;;;11.61;58.02
42169;BME280;27838;43.858;25.974;2024-02-04T08:53:43;101282.63;;;11.63;58.38
42169;BME280;27838;43.858;25.974;2024-02-04T08:56:10;101280.06;;;11.68;58.48
42169;BME280;27838;43.858;25.974;2024-02-04T08:58:36;101274.84;;;11.74;58.33
42169;BME280;27838;43.858;25.974;2024-02-04T09:01:06;101274.00;;;11.77;58.41
42169;BME280;27838;43.858;25.974;2024-02-04T09:03:33;101267.06;;;11.82;58.14
42169;BME280;27838;43.858;25.974;2024-02-04T09:06:00;101265.38;;;11.93;58.06
42169;BME280;27838;43.858;25.974;2024-02-04T09:08:26;101272.38;;;12.03;57.67
42169;BME280;27838;43.858;25.974;2024-02-04T09:10:53;101272.41;;;12.16;57.50
42169;BME280;27838;43.858;25.974;2024-02-04T09:13:19;101274.16;;;12.27;56.99
42169;BME280;27838;43.858;25.974;2024-02-04T09:15:46;101277.66;;;12.40;56.51
42169;BME280;27838;43.858;25.974;2024-02-04T09:18:12;101276.81;;;12.49;56.07
42169;BME280;27838;43.858;25.974;2024-02-04T09:20:39;101285.53;;;12.45;56.02
42169;BME280;27838;43.858;25.974;2024-02-04T09:23:06;101286.41;;;12.47;55.89
42169;BME280;27838;43.858;25.974;2024-02-04T09:25:32;101282.94;;;12.50;55.81
42169;BME280;27838;43.858;25.974;2024-02-04T09:27:59;101274.19;;;12.38;55.91
42169;BME280;27838;43.858;25.974;2024-02-04T09:30:25;101259.38;;;12.42;55.92
42169;BME280;27838;43.858;25.974;2024-02-04T09:32:52;101275.06;;;12.48;56.09
42169;BME280;27838;43.858;25.974;2024-02-04T09:35:19;101289.00;;;12.56;55.99
42169;BME280;27838;43.858;25.974;2024-02-04T09:37:45;101293.38;;;12.53;55.78
42169;BME280;27838;43.858;25.974;2024-02-04T09:40:12;101300.38;;;12.57;55.66
42169;BME280;27838;43.858;25.974;2024-02-04T09:42:40;101296.00;;;12.59;55.76
42169;BME280;27838;43.858;25.974;2024-02-04T09:45:11;101295.13;;;12.58;55.61
42169;BME280;27838;43.858;25.974;2024-02-04T09:47:41;101304.69;;;12.56;55.94
42169;BME280;27838;43.858;25.974;2024-02-04T09:50:09;101294.25;;;12.56;55.90
42169;BME280;27838;43.858;25.974;2024-02-04T09:52:39;101277.66;;;12.39;56.04
42169;BME280;27838;43.858;25.974;2024-02-04T09:55:07;101294.22;;;12.44;56.30
42169;BME280;27838;43.858;25.974;2024-02-04T09:57:36;101292.50;;;12.41;56.49
42169;BME280;27838;43.858;25.974;2024-02-04T10:00:03;101295.97;;;12.45;56.69
42169;BME280;27838;43.858;25.974;2024-02-04T10:02:32;101291.63;;;12.39;56.68
42169;BME280;27838;43.858;25.974;2024-02-04T10:04:58;101275.94;;;12.49;57.27
42169;BME280;27838;43.858;25.974;2024-02-04T10:07:26;101273.31;;;12.59;56.81
42169;BME280;27838;43.858;25.974;2024-02-04T10:09:52;101268.09;;;12.56;56.24
42169;BME280;27838;43.858;25.974;2024-02-04T10:12:19;101264.63;;;12.62;56.37
42169;BME280;27838;43.858;25.974;2024-02-04T10:14:45;101262.00;;;12.68;56.31
42169;BME280;27838;43.858;25.974;2024-02-04T10:17:14;101256.78;;;12.74;56.09
42169;BME280;27838;43.858;25.974;2024-02-04T10:19:41;101258.50;;;12.89;55.92
42169;BME280;27838;43.858;25.974;2024-02-04T10:22:08;101244.53;;;13.01;55.80
42169;BME280;27838;43.858;25.974;2024-02-04T10:24:34;101239.28;;;13.12;55.05
42169;BME280;27838;43.858;25.974;2024-02-04T10:27:01;101236.63;;;13.24;55.27
42169;BME280;27838;43.858;25.974;2024-02-04T10:29:27;101245.34;;;13.29;55.10
42169;BME280;27838;43.858;25.974;2024-02-04T10:31:55;101248.84;;;13.30;54.78
42169;BME280;27838;43.858;25.974;2024-02-04T10:34:23;101249.75;;;13.15;55.42
42169;BME280;27838;43.858;25.974;2024-02-04T10:36:52;101254.13;;;13.14;55.53
42169;BME280;27838;43.858;25.974;2024-02-04T10:39:18;101251.53;;;13.03;55.89
42169;BME280;27838;43.858;25.974;2024-02-04T10:41:52;101254.13;;;13.00;55.96
42169;BME280;27838;43.858;25.974;2024-02-04T10:44:23;101250.63;;;13.03;56.06
42169;BME280;27838;43.858;25.974;2024-02-04T10:46:51;101248.88;;;13.07;55.81
42169;BME280;27838;43.858;25.974;2024-02-04T10:49:19;101237.53;;;13.11;55.60
42169;BME280;27838;43.858;25.974;2024-02-04T10:51:46;101244.50;;;13.12;55.98
42169;BME280;27838;43.858;25.974;2024-02-04T10:54:15;101260.22;;;13.18;55.98
42169;BME280;27838;43.858;25.974;2024-02-04T10:56:45;101266.31;;;13.23;56.17
42169;BME280;27838;43.858;25.974;2024-02-04T10:59:14;101273.28;;;13.30;56.08
42169;BME280;27838;43.858;25.974;2024-02-04T11:01:43;101251.47;;;13.33;55.60
42169;BME280;27838;43.858;25.974;2024-02-04T11:04:10;101249.72;;;13.35;55.79
42169;BME280;27838;43.858;25.974;2024-02-04T11:06:37;101253.19;;;13.43;55.94
42169;BME280;27838;43.858;25.974;2024-02-04T11:09:08;101243.56;;;13.44;55.68
42169;BME280;27838;43.858;25.974;2024-02-04T11:11:36;101244.47;;;13.44;56.23
42169;BME280;27838;43.858;25.974;2024-02-04T11:14:05;101234.84;;;13.45;56.08
42169;BME280;27838;43.858;25.974;2024-02-04T11:24:54;101218.19;;;13.61;54.75
42169;BME280;27838;43.858;25.974;2024-02-04T11:27:26;101216.41;;;13.74;54.14
42169;BME280;27838;43.858;25.974;2024-02-04T11:29:53;101206.69;;;13.93;54.14
42169;BME280;27838;43.858;25.974;2024-02-04T11:32:20;101189.97;;;14.09;53.00
42169;BME280;27838;43.858;25.974;2024-02-04T11:34:46;101190.72;;;14.24;52.72
42169;BME280;27838;43.858;25.974;2024-02-04T11:37:16;101182.81;;;14.31;52.50
42169;BME280;27838;43.858;25.974;2024-02-04T11:39:51;101178.41;;;14.33;51.95
42169;BME280;27838;43.858;25.974;2024-02-04T11:42:19;101187.97;;;14.39;52.26
42169;BME280;27838;43.858;25.974;2024-02-04T11:44:46;101178.44;;;14.32;52.51
42169;BME280;27838;43.858;25.974;2024-02-04T11:47:25;101174.13;;;14.22;52.09
42169;BME280;27838;43.858;25.974;2024-02-04T11:49:57;101168.91;;;14.22;52.65
42169;BME280;27838;43.858;25.974;2024-02-04T11:52:27;101172.38;;;14.25;52.22
42169;BME280;27838;43.858;25.974;2024-02-04T11:54:53;101161.88;;;14.24;52.37
42169;BME280;27838;43.858;25.974;2024-02-04T11:57:20;101159.31;;;14.18;52.14
42169;BME280;27838;43.858;25.974;2024-02-04T11:59:48;101162.81;;;14.16;52.73
42169;BME280;27838;43.858;25.974;2024-02-04T12:02:18;101154.09;;;14.16;52.57
42169;BME280;27838;43.858;25.974;2024-02-04T12:04:45;101160.94;;;14.34;52.54
42169;BME280;27838;43.858;25.974;2024-02-04T12:07:13;101153.03;;;14.40;51.77
42169;BME280;27838;43.858;25.974;2024-02-04T12:09:41;101153.84;;;14.45;51.51
42169;BME280;27838;43.858;25.974;2024-02-04T12:12:08;101148.50;;;14.58;50.91
42169;BME280;27838;43.858;25.974;2024-02-04T12:14:35;101135.22;;;14.75;51.00
42169;BME280;27838;43.858;25.974;2024-02-04T12:17:11;101125.38;;;14.94;50.20
42169;BME280;27838;43.858;25.974;2024-02-04T12:19:38;101125.28;;;15.03;49.27
42169;BME280;27838;43.858;25.974;2024-02-04T12:22:05;101121.69;;;15.10;48.94
42169;BME280;27838;43.858;25.974;2024-02-04T12:24:37;101112.88;;;15.14;48.61
42169;BME280;27838;43.858;25.974;2024-02-04T12:27:05;101123.47;;;15.08;48.99
42169;BME280;27838;43.858;25.974;2024-02-04T12:29:32;101109.47;;;15.06;49.08
42169;BME280;27838;43.858;25.974;2024-02-04T12:31:59;101102.28;;;15.22;48.48
42169;BME280;27838;43.858;25.974;2024-02-04T12:34:26;101102.97;;;15.36;48.45
42169;BME280;27838;43.858;25.974;2024-02-04T12:37:02;101100.16;;;15.50;47.55
42169;BME280;27838;43.858;25.974;2024-02-04T12:39:29;101088.72;;;15.53;46.84
42169;BME280;27838;43.858;25.974;2024-02-04T12:41:58;101098.25;;;15.58;46.88
42169;BME280;27838;43.858;25.974;2024-02-04T12:44:24;101086.06;;;15.56;46.41
42169;BME280;27838;43.858;25.974;2024-02-04T12:46:52;101096.44;;;15.63;46.32
42169;BME280;27838;43.858;25.974;2024-02-04T12:49:22;101090.19;;;15.71;46.43
42169;BME280;27838;43.858;25.974;2024-02-04T12:51:49;101090.16;;;15.77;46.19
42169;BME280;27838;43.858;25.974;2024-02-04T12:54:17;101083.94;;;15.81;45.85
42169;BME280;27838;43.858;25.974;2024-02-04T12:56:52;101083.06;;;15.82;45.57